Time;durP1;ratioP1;P1;durP2;ratioP2;P2;SDS_P1;SDS_P2;PMS_P1;PMS_P2;Temp;Humidity;BMP_temperature;BMP_pressure;BME280_temperature;BME280_humidity;BME280_pressure;Samples;Min_cycle;Max_cycle;Signal;HPM_P1;HPM_P2
2023/02/18 00:00:18;;;;;;;40.17;23.98;;;;;;;-6.90;78.34;145630.09;5082736;28;20024;-64
2023/02/18 00:02:45;;;;;;;36.50;23.17;;;;;;;-6.73;78.29;145671.78;5120740;28;20027;-64
2023/02/18 00:05:11;;;;;;;36.60;23.05;;;;;;;-6.78;77.97;145660.44;5105514;28;20024;-64
2023/02/18 00:07:39;;;;;;;42.65;23.23;;;;;;;-6.85;77.30;145642.75;5100757;28;20308;-64
2023/02/18 00:10:08;;;;;;;38.63;22.70;;;;;;;-6.83;77.14;145647.78;5100797;28;20038;-64
2023/02/18 00:12:34;;;;;;;35.60;23.35;;;;;;;-6.65;76.92;145692.03;5096330;28;20116;-65
2023/02/18 00:14:59;;;;;;;40.75;23.50;;;;;;;-7.01;78.18;145602.28;5091411;28;20043;-65
2023/02/18 00:17:25;;;;;;;37.95;22.42;;;;;;;-6.90;78.06;145630.09;5100741;28;20093;-64
2023/02/18 00:19:50;;;;;;;40.47;23.55;;;;;;;-6.85;77.04;145641.50;5100953;28;20087;-64
2023/02/18 00:22:16;;;;;;;33.15;21.60;;;;;;;-6.86;76.79;145640.19;5102462;28;20342;-64
2023/02/18 00:24:42;;;;;;;37.85;22.55;;;;;;;-6.85;77.50;145641.50;5118372;28;20040;-63
2023/02/18 00:27:08;;;;;;;38.08;21.77;;;;;;;-7.00;77.65;145606.09;5101569;28;20065;-64
2023/02/18 00:29:33;;;;;;;40.15;23.27;;;;;;;-7.15;77.95;145568.22;5104019;28;20062;-65
2023/02/18 00:31:59;;;;;;;38.72;23.40;;;;;;;-7.02;77.91;145599.81;5104752;28;20016;-65
2023/02/18 00:34:25;;;;;;;38.30;21.98;;;;;;;-7.03;77.11;145598.50;5113723;28;20086;-64
2023/02/18 00:36:50;;;;;;;38.00;22.60;;;;;;;-7.11;77.51;145578.34;5121457;28;20035;-64
2023/02/18 00:39:16;;;;;;;38.03;22.92;;;;;;;-7.13;77.72;145574.50;5104871;28;20024;-64
2023/02/18 00:41:42;;;;;;;38.33;22.10;;;;;;;-7.11;77.18;145578.34;5124553;28;20032;-64
2023/02/18 00:44:08;;;;;;;37.85;22.92;;;;;;;-7.00;77.28;145606.09;5092116;28;20028;-63
2023/02/18 00:46:35;;;;;;;36.00;21.42;;;;;;;-7.30;77.50;145532.81;5104279;28;20103;-63
2023/02/18 00:49:00;;;;;;;36.63;22.77;;;;;;;-7.13;78.23;145574.50;5109802;28;20501;-63
2023/02/18 00:51:26;;;;;;;38.25;22.98;;;;;;;-7.05;77.02;145593.47;5106212;28;20042;-62
2023/02/18 00:53:52;;;;;;;36.67;21.55;;;;;;;-6.94;77.49;145621.28;5104458;28;20091;-64
2023/02/18 00:56:18;;;;;;;34.13;21.25;;;;;;;-7.13;76.91;145574.50;5116120;28;20044;-63
2023/02/18 00:58:44;;;;;;;33.72;20.98;;;;;;;-7.06;77.86;145589.69;5115541;28;20032;-64
2023/02/18 01:01:10;;;;;;;37.53;20.92;;;;;;;-7.57;78.43;145464.66;5118230;28;20070;-63
2023/02/18 01:03:36;;;;;;;34.50;20.50;;;;;;;-7.36;78.21;145517.69;5105966;28;20320;-64
2023/02/18 01:06:03;;;;;;;33.83;20.48;;;;;;;-7.37;77.89;145515.13;5106531;28;20020;-63
2023/02/18 01:08:29;;;;;;;32.38;19.73;;;;;;;-7.47;78.17;145491.19;5106000;28;20032;-63
2023/02/18 01:10:56;;;;;;;33.53;20.27;;;;;;;-7.51;77.17;145481.06;5104046;28;20133;-63
2023/02/18 01:13:23;;;;;;;37.15;20.92;;;;;;;-7.35;78.11;145518.97;5093193;28;20028;-63
2023/02/18 01:15:49;;;;;;;34.50;20.63;;;;;;;-7.52;77.00;145478.53;5105048;28;20385;-63
2023/02/18 01:18:14;;;;;;;33.53;20.58;;;;;;;-7.47;77.59;145491.19;5124186;28;20086;-65
2023/02/18 01:20:42;;;;;;;35.47;20.15;;;;;;;-7.42;77.63;145501.25;5105186;28;20036;-64
2023/02/18 01:23:08;;;;;;;33.08;20.15;;;;;;;-7.39;77.59;145510.09;5118513;28;20027;-63
2023/02/18 01:25:34;;;;;;;32.78;18.88;;;;;;;-7.60;77.67;145458.31;5114713;28;20031;-63
2023/02/18 01:28:00;;;;;;;35.45;21.02;;;;;;;-7.49;78.21;145486.09;5100754;28;20124;-63
2023/02/18 01:30:26;;;;;;;34.20;19.88;;;;;;;-7.59;78.20;145459.63;5121795;28;20073;-63
2023/02/18 01:32:52;;;;;;;38.42;21.85;;;;;;;-7.52;77.62;145477.28;5108955;28;20360;-64
2023/02/18 01:35:19;;;;;;;32.92;20.90;;;;;;;-7.64;78.01;145448.22;5119448;28;20032;-64
2023/02/18 01:37:45;;;;;;;29.45;19.73;;;;;;;-7.46;77.99;145492.44;5113143;28;20024;-63
2023/02/18 01:40:14;;;;;;;36.25;21.38;;;;;;;-7.41;76.64;145505.06;5109542;28;20034;-63
2023/02/18 01:42:41;;;;;;;33.45;20.42;;;;;;;-7.41;77.28;145503.78;5121707;28;20031;-63
2023/02/18 01:45:34;;;;;;;34.75;21.20;;;;;;;-7.59;77.54;145460.88;5103835;28;20096;-62
2023/02/18 01:48:02;;;;;;;34.83;19.73;;;;;;;-7.53;78.08;145474.75;5083348;28;20070;-62
2023/02/18 01:50:29;;;;;;;33.95;21.17;;;;;;;-7.49;77.69;145484.88;5102162;28;20035;-65
2023/02/18 01:52:55;;;;;;;34.58;21.92;;;;;;;-7.40;77.10;145506.31;5093183;28;20093;-63
2023/02/18 01:55:22;;;;;;;34.85;20.58;;;;;;;-7.51;77.40;145481.06;5103534;28;20044;-64
2023/02/18 01:57:48;;;;;;;34.80;20.73;;;;;;;-7.64;78.08;145449.50;5103318;28;20058;-63
2023/02/18 02:00:20;;;;;;;33.75;21.42;;;;;;;-7.72;78.26;145429.31;5103475;28;20105;-62
2023/02/18 02:02:47;;;;;;;37.25;21.58;;;;;;;-7.68;77.61;145439.41;5102975;28;20098;-62
2023/02/18 02:05:13;;;;;;;34.92;21.17;;;;;;;-7.96;78.20;145369.97;5092877;28;20034;-63
2023/02/18 02:07:44;;;;;;;34.28;21.60;;;;;;;-7.80;78.35;145410.34;5113309;28;20015;-63
2023/02/18 02:10:12;;;;;;;36.60;22.85;;;;;;;-7.61;78.02;145455.78;5117670;28;20036;-64
2023/02/18 02:12:55;;;;;;;38.13;21.55;;;;;;;-7.69;78.58;145435.63;5098488;28;20047;-63
2023/02/18 02:15:57;;;;;;;34.00;21.38;;;;;;;-7.58;78.96;145462.09;5096659;28;20031;-63
2023/02/18 02:18:44;;;;;;;;;;;;;;;-7.55;78.37;145470.97;5093814;28;20094;-64
2023/02/18 02:21:28;;;;;;;36.58;21.27;;;;;;;-7.71;79.51;145431.84;5085081;28;19904;-64
2023/02/18 02:24:38;;;;;;;35.03;20.58;;;;;;;-7.76;79.07;145419.19;5082897;28;20036;-64
2023/02/18 02:27:24;;;;;;;34.33;20.23;;;;;;;-7.86;79.55;145395.19;5082495;28;20035;-62
2023/02/18 02:30:14;;;;;;;33.70;20.60;;;;;;;-7.72;79.77;145428.06;5120477;28;20035;-63
2023/02/18 02:33:10;;;;;;;31.55;20.23;;;;;;;-7.84;79.33;145399.00;5100558;28;20046;-63
2023/02/18 02:35:50;;;;;;;34.03;21.23;;;;;;;-7.74;79.68;145422.97;5105181;28;20036;-62
2023/02/18 02:38:39;;;;;;;34.38;20.70;;;;;;;-7.88;79.76;145388.88;5115928;28;20088;-63
2023/02/18 02:41:14;;;;;;;36.63;22.17;;;;;;;-7.77;80.04;145415.41;5109957;28;20122;-63
2023/02/18 02:43:51;;;;;;;40.95;23.65;;;;;;;-7.66;79.81;145443.19;5110833;28;20030;-63
2023/02/18 02:46:19;;;;;;;45.88;25.90;;;;;;;-7.51;79.24;145479.78;5116181;28;20044;-62
2023/02/18 02:49:03;;;;;;;48.92;27.92;;;;;;;-7.55;79.27;145470.97;5102834;28;20050;-64
2023/02/18 02:51:42;;;;;;;50.95;29.50;;;;;;;-7.51;78.52;145481.06;5122103;28;20320;-63
2023/02/18 02:54:28;;;;;;;52.55;28.80;;;;;;;-7.37;78.75;145513.88;5073954;28;20048;-63
2023/02/18 02:57:07;;;;;;;45.15;25.90;;;;;;;-7.77;78.76;145416.66;5103226;28;20040;-63
2023/02/18 02:59:36;;;;;;;46.03;26.88;;;;;;;-7.70;79.14;145434.31;5100300;28;20027;-63
2023/02/18 03:02:20;;;;;;;49.83;28.00;;;;;;;-7.83;79.64;145401.53;5101827;28;20039;-63
2023/02/18 03:05:13;;;;;;;47.03;27.70;;;;;;;-7.77;79.50;145415.41;5110982;28;20216;-63
2023/02/18 03:07:54;;;;;;;46.42;27.45;;;;;;;-7.98;79.89;145364.91;5106122;28;20296;-64
2023/02/18 03:11:01;;;;;;;45.40;27.40;;;;;;;-7.86;79.60;145393.97;5093406;28;20343;-63
2023/02/18 03:14:00;;;;;;;48.65;28.15;;;;;;;-7.91;79.73;145382.59;5000264;28;20064;-64
2023/02/18 03:16:49;;;;;;;46.90;26.60;;;;;;;-8.05;79.68;145347.22;5088743;28;20232;-63
2023/02/18 03:19:22;;;;;;;40.03;24.08;;;;;;;-8.31;80.68;145284.13;5100695;28;20537;-62
2023/02/18 03:21:57;;;;;;;42.17;24.75;;;;;;;-8.18;79.99;145315.69;5120399;28;20452;-63
2023/02/18 03:24:31;;;;;;;43.45;25.75;;;;;;;-7.98;80.43;145366.19;5083911;28;20174;-63
2023/02/18 03:27:07;;;;;;;44.10;25.23;;;;;;;-7.85;79.87;145397.75;5111130;28;20099;-63
2023/02/18 03:29:34;;;;;;;41.13;23.85;;;;;;;-7.76;79.38;145417.94;5100765;28;20034;-63
2023/02/18 03:32:04;;;;;;;38.13;22.00;;;;;;;-8.08;79.27;145339.66;5118922;28;20043;-62
2023/02/18 03:34:32;;;;;;;35.20;22.35;;;;;;;-8.07;79.40;145342.19;5114171;28;20305;-63
2023/02/18 03:37:00;;;;;;;40.50;23.27;;;;;;;-7.96;79.57;145368.72;5087355;28;20020;-64
2023/02/18 03:39:29;;;;;;;37.00;21.73;;;;;;;-8.03;79.70;145352.31;5122382;28;20028;-64
2023/02/18 03:41:55;;;;;;;39.33;22.05;;;;;;;-8.29;80.93;145287.91;5102453;28;20031;-65
2023/02/18 03:44:23;;;;;;;39.35;23.58;;;;;;;-8.16;80.54;145322.00;5116685;28;20036;-65
2023/02/18 03:46:49;;;;;;;40.17;23.27;;;;;;;-8.20;80.66;145310.66;5111773;28;20282;-64
2023/02/18 03:49:15;;;;;;;41.28;24.15;;;;;;;-7.91;80.35;145381.31;5107477;28;20098;-64
2023/02/18 03:51:41;;;;;;;46.33;24.83;;;;;;;-8.04;81.07;145349.75;5121320;28;20030;-63
2023/02/18 03:54:07;;;;;;;42.72;24.27;;;;;;;-7.98;80.93;145366.19;5101912;28;20312;-64
2023/02/18 03:56:34;;;;;;;42.00;24.92;;;;;;;-7.87;81.30;145392.66;5087732;28;20028;-64
2023/02/18 03:59:00;;;;;;;45.20;24.38;;;;;;;-7.97;82.24;145367.44;5105267;28;20124;-63
2023/02/18 04:01:25;;;;;;;48.30;26.50;;;;;;;-7.99;81.33;145363.66;5114851;28;20029;-63
2023/02/18 04:03:51;;;;;;;45.10;25.92;;;;;;;-8.07;80.81;145342.19;5105923;28;20101;-63
2023/02/18 04:06:17;;;;;;;45.10;26.92;;;;;;;-7.87;81.32;145392.66;5125975;28;20034;-64
2023/02/18 04:08:43;;;;;;;48.50;26.67;;;;;;;-7.73;80.28;145425.53;5107870;28;20032;-64
2023/02/18 04:11:08;;;;;;;48.55;25.98;;;;;;;-7.77;80.47;145415.41;5110972;28;20024;-63
2023/02/18 04:13:34;;;;;;;36.85;19.63;;;;;;;-8.30;80.37;145286.66;5105376;28;20047;-63
2023/02/18 04:15:59;;;;;;;44.90;26.83;;;;;;;-8.09;81.24;145337.13;5092712;28;20196;-65
2023/02/18 04:18:25;;;;;;;48.45;27.00;;;;;;;-7.82;80.89;145404.06;5125380;28;20023;-64
2023/02/18 04:20:51;;;;;;;46.10;26.42;;;;;;;-8.09;80.96;145337.13;5106628;28;20034;-65
2023/02/18 04:23:16;;;;;;;45.97;26.40;;;;;;;-7.95;81.04;145371.22;5119104;28;20054;-64
2023/02/18 04:25:42;;;;;;;47.22;28.85;;;;;;;-7.92;80.77;145378.78;5116288;28;20066;-64
2023/02/18 04:28:12;;;;;;;44.85;26.73;;;;;;;-7.73;80.35;145425.53;5109494;28;20073;-64
2023/02/18 04:30:38;;;;;;;41.70;24.05;;;;;;;-8.08;80.63;145340.94;5121172;28;20032;-64
2023/02/18 04:33:03;;;;;;;42.20;24.25;;;;;;;-7.98;81.03;145364.91;5125613;28;20024;-64
2023/02/18 04:35:29;;;;;;;38.58;23.45;;;;;;;-8.10;80.95;145334.63;5109576;28;20236;-64
2023/02/18 04:37:54;;;;;;;39.45;25.48;;;;;;;-7.95;80.89;145372.50;5115847;28;20068;-64
2023/02/18 04:40:20;;;;;;;37.47;23.92;;;;;;;-7.72;80.77;145429.31;5118694;28;20043;-63
2023/02/18 04:42:45;;;;;;;39.10;23.98;;;;;;;-7.87;80.70;145392.66;5103663;28;20024;-63
2023/02/18 04:45:11;;;;;;;40.70;24.02;;;;;;;-7.92;80.87;145380.06;5103453;28;20085;-64
2023/02/18 04:47:36;;;;;;;34.97;22.33;;;;;;;-7.95;80.77;145371.22;5103767;28;20043;-64
2023/02/18 04:50:02;;;;;;;34.20;22.67;;;;;;;-7.93;80.87;145377.53;5115166;28;20094;-63
2023/02/18 04:52:28;;;;;;;40.90;23.67;;;;;;;-7.95;81.28;145372.50;5117873;28;20032;-64
2023/02/18 04:54:54;;;;;;;38.78;21.30;;;;;;;-8.15;80.99;145324.53;5106395;28;20097;-66
2023/02/18 04:57:19;;;;;;;43.25;26.92;;;;;;;-7.81;81.02;145406.56;5125161;28;20100;-64
2023/02/18 04:59:45;;;;;;;50.83;27.45;;;;;;;-7.95;81.54;145372.50;5086127;28;20036;-63
2023/02/18 05:02:10;;;;;;;49.38;27.67;;;;;;;-7.96;81.62;145368.72;5116794;28;20046;-63
2023/02/18 05:04:36;;;;;;;50.67;28.48;;;;;;;-7.84;80.84;145399.00;5116557;28;20225;-65
2023/02/18 05:07:01;;;;;;;45.22;22.00;;;;;;;-8.19;81.81;145313.19;5106505;28;20109;-64
2023/02/18 05:09:27;;;;;;;58.70;32.20;;;;;;;-7.94;81.73;145375.00;5124425;28;20055;-65
2023/02/18 05:11:53;;;;;;;46.55;26.48;;;;;;;-7.94;81.17;145375.00;5106035;28;20205;-64
2023/02/18 05:14:18;;;;;;;49.88;29.13;;;;;;;-7.84;81.22;145400.28;5103495;28;20073;-64
2023/02/18 05:16:44;;;;;;;50.55;29.17;;;;;;;-7.71;80.77;145430.53;5112228;28;20062;-64
2023/02/18 05:19:13;;;;;;;50.55;29.48;;;;;;;-7.73;80.42;145425.53;5120245;28;20358;-64
2023/02/18 05:21:39;;;;;;;46.22;27.75;;;;;;;-8.02;81.17;145356.09;5104059;28;20020;-64
2023/02/18 05:24:05;;;;;;;48.55;27.75;;;;;;;-8.04;81.12;145351.00;5104172;28;20300;-64
2023/02/18 05:26:30;;;;;;;47.78;27.52;;;;;;;-8.01;80.58;145357.31;5103588;28;20484;-64
2023/02/18 05:28:56;;;;;;;47.78;26.38;;;;;;;-7.80;80.69;145409.09;5114276;28;20054;-65
2023/02/18 05:31:22;;;;;;;43.40;25.77;;;;;;;-7.84;79.95;145400.28;5119599;28;20199;-66
2023/02/18 05:33:47;;;;;;;43.30;23.95;;;;;;;-7.77;80.28;145415.41;5123562;28;20121;-66
2023/02/18 05:36:13;;;;;;;38.70;24.70;;;;;;;-7.86;79.99;145395.19;5103499;28;20227;-66
2023/02/18 05:38:38;;;;;;;40.90;25.05;;;;;;;-7.70;79.94;145434.31;5094564;28;20055;-66
2023/02/18 05:41:04;;;;;;;38.67;24.20;;;;;;;-7.70;80.44;145433.09;5112048;28;20031;-65
2023/02/18 05:43:29;;;;;;;34.20;22.45;;;;;;;-7.74;80.01;145424.22;5110299;28;20038;-65
2023/02/18 05:45:55;;;;;;;32.80;21.30;;;;;;;-7.61;80.07;145455.78;5122040;28;20055;-66
2023/02/18 05:48:20;;;;;;;26.75;16.10;;;;;;;-7.90;79.30;145385.09;5103658;28;20023;-65
2023/02/18 05:50:46;;;;;;;30.95;19.92;;;;;;;-7.63;79.87;145450.75;5112515;28;20284;-64
2023/02/18 05:53:12;;;;;;;26.15;16.92;;;;;;;-7.76;78.57;145417.94;5111175;28;20255;-64
2023/02/18 05:55:37;;;;;;;26.17;17.65;;;;;;;-7.69;78.47;145435.63;5103380;28;20028;-66
2023/02/18 05:58:04;;;;;;;24.75;15.27;;;;;;;-7.74;79.17;145422.97;5120560;28;20036;-66
2023/02/18 06:00:31;;;;;;;23.20;15.15;;;;;;;-7.85;79.52;145397.75;5103297;28;20028;-66
2023/02/18 06:02:57;;;;;;;21.25;13.95;;;;;;;-8.00;80.32;145359.88;5106530;28;20042;-65
2023/02/18 06:05:24;;;;;;;20.38;12.43;;;;;;;-8.08;79.73;145339.66;5098497;28;20171;-66
2023/02/18 06:07:50;;;;;;;18.67;12.63;;;;;;;-7.99;79.16;145363.66;5102174;28;20024;-64
2023/02/18 06:10:17;;;;;;;17.55;10.13;;;;;;;-8.09;78.50;145338.41;5101176;28;20031;-64
2023/02/18 06:12:43;;;;;;;18.63;12.68;;;;;;;-7.93;79.19;145377.53;5082028;28;20978;-64
2023/02/18 06:15:08;;;;;;;16.02;10.80;;;;;;;-8.09;78.11;145338.41;5098926;28;20031;-67
2023/02/18 06:17:34;;;;;;;18.80;11.50;;;;;;;-7.90;78.97;145383.84;5101817;28;20361;-66
2023/02/18 06:20:00;;;;;;;15.82;11.98;;;;;;;-7.87;79.14;145392.66;5101940;28;20035;-65
2023/02/18 06:22:25;;;;;;;17.75;12.00;;;;;;;-7.82;78.69;145405.31;5101048;28;20035;-65
2023/02/18 06:24:51;;;;;;;18.35;11.38;;;;;;;-7.84;79.22;145399.00;5101734;28;20024;-65
2023/02/18 06:27:17;;;;;;;17.23;12.13;;;;;;;-7.76;78.91;145417.94;5101481;28;20016;-65
2023/02/18 06:29:42;;;;;;;16.05;10.38;;;;;;;-7.78;78.08;145414.16;5101263;28;20127;-65
2023/02/18 06:32:08;;;;;;;15.20;10.68;;;;;;;-7.60;77.78;145457.06;5096197;28;20265;-64
2023/02/18 06:34:33;;;;;;;14.45;10.48;;;;;;;-7.75;78.36;145421.72;5095884;28;20130;-65
2023/02/18 06:36:59;;;;;;;15.35;10.68;;;;;;;-7.83;78.85;145402.78;5100712;28;20020;-65
2023/02/18 06:39:24;;;;;;;15.38;10.75;;;;;;;-7.69;78.82;145435.63;5100852;28;20235;-65
2023/02/18 06:41:50;;;;;;;14.05;9.15;;;;;;;-7.78;78.62;145412.88;5101179;28;20024;-65
2023/02/18 06:44:16;;;;;;;15.43;10.38;;;;;;;-7.45;78.49;145494.97;5100898;28;22158;-65
2023/02/18 06:46:43;;;;;;;14.98;10.82;;;;;;;-7.48;78.69;145487.34;5100275;28;20343;-66
2023/02/18 06:49:08;;;;;;;13.70;9.15;;;;;;;-7.47;77.62;145491.19;5098160;28;20054;-65
2023/02/18 06:51:34;;;;;;;12.57;8.80;;;;;;;-7.36;78.06;145516.44;5100609;28;20301;-65
2023/02/18 06:54:00;;;;;;;12.40;8.73;;;;;;;-7.34;77.61;145522.75;5103015;28;20012;-65
2023/02/18 06:56:25;;;;;;;11.82;8.52;;;;;;;-7.58;78.25;145463.41;5099968;28;20086;-64
2023/02/18 06:58:51;;;;;;;13.27;8.95;;;;;;;-7.40;78.15;145506.31;5100272;28;20024;-65
2023/02/18 07:01:16;;;;;;;14.70;9.27;;;;;;;-7.37;78.58;145515.13;5100628;28;20020;-65
2023/02/18 07:03:42;;;;;;;11.68;9.43;;;;;;;-7.36;78.57;145516.44;5080405;28;20309;-65
2023/02/18 07:06:08;;;;;;;13.73;9.10;;;;;;;-7.36;79.34;145516.44;5101323;28;20043;-64
2023/02/18 07:08:36;;;;;;;13.18;8.80;;;;;;;-7.28;79.73;145536.66;5084552;28;20054;-67
2023/02/18 07:11:02;;;;;;;14.23;9.70;;;;;;;-7.13;78.03;145574.50;5095031;28;20028;-66
2023/02/18 07:13:28;;;;;;;13.57;9.45;;;;;;;-7.20;79.24;145555.56;5101223;28;20311;-65
2023/02/18 07:15:53;;;;;;;12.45;8.95;;;;;;;-7.27;79.32;145539.13;5101474;28;20036;-67
2023/02/18 07:18:19;;;;;;;13.32;9.40;;;;;;;-7.14;78.49;145572.00;5101171;28;20020;-65
2023/02/18 07:20:45;;;;;;;11.35;8.88;;;;;;;-7.05;78.16;145593.47;5101273;28;20020;-65
2023/02/18 07:23:11;;;;;;;11.93;7.88;;;;;;;-7.26;78.29;145541.69;5101723;28;20031;-67
2023/02/18 07:25:37;;;;;;;11.23;8.57;;;;;;;-7.16;79.54;145566.94;5084484;28;20122;-65
2023/02/18 07:28:03;;;;;;;12.20;8.90;;;;;;;-6.91;78.05;145627.59;5102961;28;20028;-65
2023/02/18 07:30:29;;;;;;;13.40;9.30;;;;;;;-7.01;79.23;145602.28;5102152;28;20038;-65
2023/02/18 07:32:54;;;;;;;12.85;9.15;;;;;;;-6.86;78.86;145640.19;5102086;28;20073;-65
2023/02/18 07:35:20;;;;;;;13.27;9.10;;;;;;;-6.73;78.95;145670.53;5107247;28;20031;-66
2023/02/18 07:37:47;;;;;;;11.75;9.00;;;;;;;-6.63;79.04;145695.81;5114548;28;20169;-65
2023/02/18 07:40:16;;;;;;;12.30;9.18;;;;;;;-6.80;77.54;145655.41;5105984;28;20351;-65
2023/02/18 07:42:41;;;;;;;11.18;8.77;;;;;;;-6.38;77.45;145756.47;5091641;28;20054;-65
2023/02/18 07:45:08;;;;;;;12.48;8.75;;;;;;;-6.38;77.99;145756.47;5098392;28;20036;-66
2023/02/18 07:47:34;;;;;;;14.60;9.90;;;;;;;-6.45;77.34;145741.31;5090983;28;20213;-65
2023/02/18 07:49:59;;;;;;;11.63;8.63;;;;;;;-6.94;79.42;145621.28;5082926;28;20028;-65
2023/02/18 07:52:25;;;;;;;13.20;9.43;;;;;;;-6.51;78.80;145724.88;5089914;28;20068;-66
2023/02/18 07:54:50;;;;;;;11.15;8.93;;;;;;;-6.77;79.21;145662.97;5105530;28;20091;-64
2023/02/18 07:57:16;;;;;;;11.25;9.02;;;;;;;-6.62;78.99;145699.59;5082471;28;20048;-66
2023/02/18 07:59:41;;;;;;;13.32;9.82;;;;;;;-6.58;79.18;145708.47;5116317;28;20046;-66
2023/02/18 08:02:17;;;;;;;16.58;9.32;;;;;;;-6.63;78.77;145697.06;5114713;28;20075;-66
2023/02/18 08:04:43;;;;;;;13.05;9.65;;;;;;;-6.50;79.07;145727.41;5096841;28;20103;-65
2023/02/18 08:07:13;;;;;;;14.40;10.25;;;;;;;-6.29;80.00;145779.25;5101801;28;20421;-65
2023/02/18 08:09:39;;;;;;;17.65;10.90;;;;;;;-6.10;79.22;145827.28;5115942;28;20058;-64
2023/02/18 08:12:05;;;;;;;12.45;9.25;;;;;;;-6.56;80.06;145713.50;5088774;28;20012;-64
2023/02/18 08:14:30;;;;;;;12.32;9.88;;;;;;;-6.35;78.67;145764.09;5085055;28;20200;-65
2023/02/18 08:16:56;;;;;;;16.17;10.57;;;;;;;-6.11;78.27;145823.50;5094988;28;20177;-66
2023/02/18 08:19:21;;;;;;;13.95;8.95;;;;;;;-6.30;78.94;145776.69;5109248;28;20320;-65
2023/02/18 08:21:47;;;;;;;12.50;9.07;;;;;;;-6.29;78.48;145779.25;5125790;28;20026;-65
2023/02/18 08:24:13;;;;;;;11.27;8.35;;;;;;;-6.54;80.77;145718.59;5105762;28;20035;-64
2023/02/18 08:26:38;;;;;;;13.52;9.07;;;;;;;-6.28;80.57;145781.78;5119624;28;20042;-65
2023/02/18 08:29:04;;;;;;;12.02;8.93;;;;;;;-6.31;79.34;145775.44;5115392;28;20035;-65
2023/02/18 08:31:30;;;;;;;13.30;9.32;;;;;;;-6.20;79.69;145801.97;5104542;28;20308;-65
2023/02/18 08:33:59;;;;;;;12.50;8.63;;;;;;;-6.15;78.92;145813.38;5106194;28;20020;-66
2023/02/18 08:36:25;;;;;;;12.65;9.38;;;;;;;-6.23;79.65;145794.38;5125102;28;20031;-65
2023/02/18 08:38:51;;;;;;;12.88;9.20;;;;;;;-6.27;79.15;145784.28;5108399;28;20071;-64
2023/02/18 08:41:17;;;;;;;11.70;8.90;;;;;;;-6.07;79.71;145834.88;5109394;28;20087;-65
2023/02/18 08:43:43;;;;;;;13.18;8.85;;;;;;;-6.09;78.93;145829.78;5099757;28;20073;-65
2023/02/18 08:46:09;;;;;;;11.60;7.10;;;;;;;-6.43;79.70;145746.41;5070130;28;20056;-65
2023/02/18 08:48:35;;;;;;;14.52;10.07;;;;;;;-6.24;80.43;145791.91;5104349;28;20358;-65
2023/02/18 08:51:10;;;;;;;14.80;10.90;;;;;;;-5.93;79.79;145867.69;5086745;28;20076;-65
2023/02/18 08:53:36;;;;;;;13.23;9.50;;;;;;;-5.64;78.08;145938.50;5068382;28;20063;-65
2023/02/18 08:56:05;;;;;;;15.75;10.73;;;;;;;-5.57;78.25;145956.25;5083403;28;20202;-65
2023/02/18 08:58:31;;;;;;;15.15;10.13;;;;;;;-5.67;79.02;145930.91;5083686;28;20095;-65
2023/02/18 09:01:00;;;;;;;14.82;10.45;;;;;;;-5.72;79.16;145919.53;5083393;28;20028;-67
2023/02/18 09:03:26;;;;;;;14.93;10.57;;;;;;;-5.58;78.04;145953.72;5066057;28;20036;-66
2023/02/18 09:05:51;;;;;;;14.38;9.77;;;;;;;-5.28;77.30;146027.09;5084062;28;20047;-66
2023/02/18 09:08:18;;;;;;;14.23;10.52;;;;;;;-5.27;77.94;146030.88;5095276;28;20035;-65
2023/02/18 09:10:43;;;;;;;18.27;10.65;;;;;;;-5.38;78.92;146004.28;5097037;28;20032;-66
2023/02/18 09:13:09;;;;;;;13.07;10.05;;;;;;;-5.40;79.16;145999.25;5083793;28;20082;-66
2023/02/18 09:15:35;;;;;;;14.20;9.55;;;;;;;-5.32;78.64;146018.22;5083635;28;20024;-65
2023/02/18 09:18:00;;;;;;;15.60;9.60;;;;;;;-5.76;78.99;145909.41;5101176;28;20043;-65
2023/02/18 09:20:26;;;;;;;13.18;9.80;;;;;;;-5.65;78.13;145937.25;5079194;28;20067;-66
2023/02/18 09:22:52;;;;;;;11.60;9.20;;;;;;;-5.47;77.60;145980.25;5078957;28;20027;-66
2023/02/18 09:25:17;;;;;;;13.88;9.40;;;;;;;-5.46;79.12;145982.78;5067837;28;20062;-67
2023/02/18 09:27:43;;;;;;;14.52;9.30;;;;;;;-5.61;76.94;145947.38;5083655;28;20036;-66
2023/02/18 09:30:09;;;;;;;14.48;9.45;;;;;;;-5.64;78.73;145938.50;5083749;28;20201;-66
2023/02/18 09:32:35;;;;;;;12.35;9.15;;;;;;;-5.28;77.96;146027.09;5072773;28;20159;-66
2023/02/18 09:35:01;;;;;;;13.80;9.65;;;;;;;-5.08;77.92;146077.69;5095068;28;20051;-67
2023/02/18 09:37:27;;;;;;;12.95;9.52;;;;;;;-5.13;77.42;146065.06;5085173;28;20035;-65
2023/02/18 09:39:53;;;;;;;14.90;9.07;;;;;;;-5.06;76.04;146082.78;5082971;28;20048;-65
2023/02/18 09:42:26;;;;;;;10.82;8.85;;;;;;;-5.31;77.36;146019.50;5083095;28;20032;-66
2023/02/18 09:44:56;;;;;;;10.73;8.20;;;;;;;-5.45;78.26;145985.34;5099037;28;20111;-66
2023/02/18 09:47:38;;;;;;;12.63;9.00;;;;;;;-5.22;76.47;146042.25;5091652;28;20086;-65
2023/02/18 09:50:33;;;;;;;11.32;8.40;;;;;;;-5.41;76.25;145996.72;5083682;28;20320;-67
2023/02/18 09:53:00;;;;;;;12.25;8.40;;;;;;;-5.34;77.31;146011.88;5067328;28;20104;-66
2023/02/18 09:55:38;;;;;;;11.40;8.55;;;;;;;-5.11;77.72;146068.84;5082452;28;20028;-66
2023/02/18 09:58:11;;;;;;;10.30;8.80;;;;;;;-5.32;76.50;146018.22;5082294;28;20066;-65
2023/02/18 10:00:53;;;;;;;12.10;9.15;;;;;;;-5.18;76.83;146052.38;5102072;28;20039;-67
2023/02/18 10:03:23;;;;;;;;;;;;;;;-5.21;76.33;146046.06;5083894;28;20032;-68
2023/02/18 10:05:57;;;;;;;10.77;8.30;;;;;;;-5.16;76.49;146056.19;5098402;28;20108;-66
2023/02/18 10:08:35;;;;;;;9.88;7.30;;;;;;;-5.25;77.49;146034.69;5090968;28;20232;-65
2023/02/18 10:11:02;;;;;;;8.95;6.53;;;;;;;-5.29;76.48;146024.53;5067864;28;20031;-66
2023/02/18 10:13:31;;;;;;;10.43;8.05;;;;;;;-5.26;76.98;146032.13;5082711;28;20365;-67
2023/02/18 10:15:56;;;;;;;10.93;8.40;;;;;;;-5.11;76.49;146070.09;5078459;28;20175;-68
2023/02/18 10:18:30;;;;;;;13.98;8.15;;;;;;;-5.10;76.90;146072.66;5102339;28;20030;-66
2023/02/18 10:21:09;;;;;;;13.75;9.20;;;;;;;-4.86;75.58;146132.13;5085756;28;20037;-65
2023/02/18 10:23:42;;;;;;;11.82;8.05;;;;;;;-4.86;75.94;146130.84;5081713;28;20029;-65
2023/02/18 10:26:13;;;;;;;13.63;9.43;;;;;;;-4.77;75.60;146152.41;5081638;28;20025;-66
2023/02/18 10:28:39;;;;;;;12.50;8.98;;;;;;;-4.60;75.66;146195.44;5087185;28;20036;-67
2023/02/18 10:31:09;;;;;;;12.95;8.95;;;;;;;-4.52;74.08;146214.41;5065891;28;20087;-66
2023/02/18 10:34:18;;;;;;;12.52;8.82;;;;;;;-4.75;74.53;146158.69;5075477;28;20044;-66
2023/02/18 10:36:54;;;;;;;11.07;8.27;;;;;;;-4.70;73.91;146170.13;5077481;28;20047;-67
2023/02/18 10:39:31;;;;;;;11.57;8.52;;;;;;;-4.93;73.64;146114.41;5078196;28;20020;-66
2023/02/18 10:42:18;;;;;;;11.02;7.75;;;;;;;-5.03;75.75;146090.38;5077511;28;20147;-66
2023/02/18 10:44:50;;;;;;;10.98;8.45;;;;;;;-4.89;73.98;146124.56;5081772;28;20047;-65
2023/02/18 10:47:52;;;;;;;10.90;7.75;;;;;;;-4.77;73.58;146153.66;5102282;28;20272;-66
2023/02/18 10:50:33;;;;;;;12.13;9.15;;;;;;;-4.63;74.58;146186.56;5102762;28;20047;-67
2023/02/18 10:53:07;;;;;;;12.77;9.20;;;;;;;-4.59;73.57;146197.97;5102945;28;20149;-66
2023/02/18 10:55:45;;;;;;;12.20;9.02;;;;;;;-4.42;73.56;146239.72;5107047;28;20039;-67
2023/02/18 10:58:34;;;;;;;11.45;9.73;;;;;;;-4.55;73.36;146206.81;5106909;28;20339;-66
2023/02/18 11:01:07;;;;;;;12.45;9.60;;;;;;;-4.76;74.46;146156.19;5105126;28;20069;-66
2023/02/18 11:03:42;;;;;;;12.35;9.55;;;;;;;-4.43;74.02;146235.94;5107525;28;20031;-67
2023/02/18 11:06:15;;;;;;;12.68;9.98;;;;;;;-4.39;72.60;146247.34;5102399;28;20069;-67
2023/02/18 11:08:44;;;;;;;12.48;9.45;;;;;;;-4.54;74.11;146209.38;5103501;28;20077;-67
2023/02/18 11:11:24;;;;;;;12.10;9.05;;;;;;;-4.51;72.91;146216.94;5106101;28;20090;-67
2023/02/18 11:13:55;;;;;;;13.60;10.05;;;;;;;-4.55;74.45;146208.06;5097950;28;20028;-67
2023/02/18 11:16:42;;;;;;;13.38;10.10;;;;;;;-4.44;73.19;146233.44;5084607;28;20409;-66
2023/02/18 11:19:35;;;;;;;9.30;7.63;;;;;;;-4.70;73.52;146170.13;5105851;28;20211;-67
2023/02/18 11:22:20;;;;;;;13.07;10.15;;;;;;;-4.51;74.02;146216.94;5101591;28;20048;-68